Time;durP1;ratioP1;P1;durP2;ratioP2;P2;SDS_P1;SDS_P2;PMS_P1;PMS_P2;Temp;Humidity;BMP_temperature;BMP_pressure;BME280_temperature;BME280_humidity;BME280_pressure;Samples;Min_cycle;Max_cycle;Signal;HPM_P1;HPM_P2
2022/10/23 00:00:18;;;;;;;123.70;44.33;;;;;;;;;;6287881;28;20099;-67
2022/10/23 00:03:39;;;;;;;117.22;42.63;;;;;;;;;;6287542;28;20396;-68
2022/10/23 00:06:40;;;;;;;126.75;43.90;;;;;;;;;;6289241;28;20059;-66
2022/10/23 00:09:40;;;;;;;120.45;43.50;;;;;;;;;;6289198;28;20132;-68
2022/10/23 00:12:41;;;;;;;124.18;42.58;;;;;;;;;;6285416;28;20048;-67
2022/10/23 00:15:41;;;;;;;117.82;43.65;;;;;;;;;;6289030;28;20039;-66
2022/10/23 00:18:42;;;;;;;122.65;43.33;;;;;;;;;;6290211;28;20049;-67
2022/10/23 00:21:43;;;;;;;123.03;43.20;;;;;;;;;;6285057;28;20503;-67
2022/10/23 00:24:43;;;;;;;119.93;42.95;;;;;;;;;;6286536;28;20507;-65
2022/10/23 00:27:44;;;;;;;115.93;41.63;;;;;;;;;;6286733;28;20388;-67
2022/10/23 00:30:45;;;;;;;116.85;42.42;;;;;;;;;;6285666;28;20040;-66
2022/10/23 00:33:46;;;;;;;125.30;45.05;;;;;;;;;;6287602;28;20049;-66
2022/10/23 00:36:46;;;;;;;110.63;40.17;;;;;;;;;;6287574;28;20040;-65
2022/10/23 00:39:47;;;;;;;122.93;43.55;;;;;;;;;;6286342;28;20399;-67
2022/10/23 00:42:48;;;;;;;118.28;42.13;;;;;;;;;;6286702;28;20037;-66
2022/10/23 00:45:48;;;;;;;117.97;43.25;;;;;;;;;;6288415;28;20072;-67
2022/10/23 00:48:49;;;;;;;113.82;40.42;;;;;;;;;;6286124;28;20097;-67
2022/10/23 00:51:52;;;;;;;113.15;41.10;;;;;;;;;;6286459;28;20514;-67
2022/10/23 00:54:53;;;;;;;125.10;41.75;;;;;;;;;;6287356;28;20048;-66
2022/10/23 00:57:54;;;;;;;115.38;41.33;;;;;;;;;;6288537;28;20109;-67
2022/10/23 01:00:55;;;;;;;123.85;39.75;;;;;;;;;;6287431;28;20064;-68
2022/10/23 01:03:56;;;;;;;117.72;39.75;;;;;;;;;;6290270;28;20186;-67
2022/10/23 01:07:11;;;;;;;117.28;40.75;;;;;;;;;;6288235;28;20048;-67
2022/10/23 01:10:27;;;;;;;109.50;38.30;;;;;;;;;;6288082;28;20127;-66
2022/10/23 01:13:46;;;;;;;112.95;38.38;;;;;;;;;;6284765;28;20040;-67
2022/10/23 01:17:02;;;;;;;114.05;38.63;;;;;;;;;;6291510;28;20048;-68
2022/10/23 01:20:18;;;;;;;107.95;38.35;;;;;;;;;;6293308;28;20044;-68
2022/10/23 01:23:28;;;;;;;115.22;39.33;;;;;;;;;;6287207;28;20080;-67
2022/10/23 01:26:38;;;;;;;106.47;37.47;;;;;;;;;;6284655;28;20708;-67
2022/10/23 01:29:48;;;;;;;98.78;36.22;;;;;;;;;;6290364;28;20047;-67
2022/10/23 01:33:13;;;;;;;104.00;36.17;;;;;;;;;;6285826;28;20044;-67
2022/10/23 01:36:17;;;;;;;98.90;35.33;;;;;;;;;;6285564;28;20113;-67
2022/10/23 01:39:23;;;;;;;107.97;34.40;;;;;;;;;;6284108;28;20052;-65
2022/10/23 01:42:31;;;;;;;109.40;36.83;;;;;;;;;;6291432;28;20115;-65
2022/10/23 01:45:42;;;;;;;94.75;33.42;;;;;;;;;;6288446;28;20075;-67
2022/10/23 01:48:52;;;;;;;106.80;34.77;;;;;;;;;;6285182;28;20063;-67
2022/10/23 01:51:58;;;;;;;100.97;33.92;;;;;;;;;;6282285;28;20474;-65
2022/10/23 01:55:00;;;;;;;102.07;34.92;;;;;;;;;;6284878;28;20567;-68
2022/10/23 01:58:01;;;;;;;;;;;;;;;;;;6287550;28;20049;-66
2022/10/23 02:01:05;;;;;;;97.45;32.10;;;;;;;;;;6283712;28;19974;-67
2022/10/23 02:04:08;;;;;;;96.75;33.78;;;;;;;;;;6284956;28;20866;-65
2022/10/23 02:07:09;;;;;;;90.88;32.40;;;;;;;;;;6285680;28;20044;-65
2022/10/23 02:10:10;;;;;;;100.13;35.20;;;;;;;;;;6285485;28;20123;-66
2022/10/23 02:13:35;;;;;;;104.10;34.42;;;;;;;;;;6285434;28;20049;-67
2022/10/23 02:16:41;;;;;;;100.40;34.08;;;;;;;;;;6284346;28;20083;-68
2022/10/23 02:19:56;;;;;;;110.97;35.30;;;;;;;;;;6285902;28;20082;-68
2022/10/23 02:22:59;;;;;;;103.20;33.72;;;;;;;;;;6281653;28;20436;-67
2022/10/23 02:26:15;;;;;;;101.47;33.47;;;;;;;;;;6283891;28;20132;-66
2022/10/23 02:29:26;;;;;;;108.57;34.47;;;;;;;;;;6285112;28;20506;-65
2022/10/23 02:32:28;;;;;;;102.37;35.20;;;;;;;;;;6284651;28;20179;-68
2022/10/23 02:35:28;;;;;;;102.25;34.30;;;;;;;;;;6282170;28;20366;-66
2022/10/23 02:38:39;;;;;;;104.93;33.65;;;;;;;;;;6285686;28;20487;-67
2022/10/23 02:42:02;;;;;;;110.03;34.17;;;;;;;;;;6285106;28;20102;-63
2022/10/23 02:45:09;;;;;;;112.38;34.03;;;;;;;;;;6288827;28;20498;-67
2022/10/23 02:48:22;;;;;;;112.35;35.75;;;;;;;;;;6291836;28;20401;-67
2022/10/23 02:51:40;;;;;;;115.07;35.53;;;;;;;;;;6294070;28;20442;-67
2022/10/23 02:55:05;;;;;;;112.18;36.78;;;;;;;;;;6291856;28;20045;-66
2022/10/23 02:58:15;;;;;;;118.30;37.97;;;;;;;;;;6294604;28;20074;-66
2022/10/23 03:01:22;;;;;;;124.82;40.65;;;;;;;;;;6296493;28;20492;-68
2022/10/23 03:04:24;;;;;;;121.05;39.00;;;;;;;;;;6292521;28;20044;-68
2022/10/23 03:07:26;;;;;;;119.53;37.97;;;;;;;;;;6291585;28;20585;-67
2022/10/23 03:10:26;;;;;;;126.43;40.43;;;;;;;;;;6294374;28;20068;-68
2022/10/23 03:13:27;;;;;;;129.95;40.97;;;;;;;;;;6294535;28;20786;-66
2022/10/23 03:16:27;;;;;;;124.47;39.45;;;;;;;;;;6294680;28;20044;-67
2022/10/23 03:19:28;;;;;;;135.82;41.95;;;;;;;;;;6292699;28;20046;-67
2022/10/23 03:22:28;;;;;;;120.82;40.30;;;;;;;;;;6297051;28;20076;-68
2022/10/23 03:25:29;;;;;;;140.98;41.65;;;;;;;;;;6296376;28;20036;-67
2022/10/23 03:28:29;;;;;;;141.15;46.53;;;;;;;;;;6293098;28;20159;-67
2022/10/23 03:31:30;;;;;;;160.93;49.80;;;;;;;;;;6290974;28;20515;-66
2022/10/23 03:34:30;;;;;;;146.80;45.58;;;;;;;;;;6291001;28;20071;-67
2022/10/23 03:37:31;;;;;;;147.45;48.90;;;;;;;;;;6291365;28;20049;-64
2022/10/23 03:40:32;;;;;;;147.90;45.88;;;;;;;;;;6291271;28;20098;-67
2022/10/23 03:43:32;;;;;;;144.57;44.47;;;;;;;;;;6291709;28;20056;-68
2022/10/23 03:46:33;;;;;;;141.25;43.92;;;;;;;;;;6292478;28;20694;-67
2022/10/23 03:49:33;;;;;;;131.73;41.15;;;;;;;;;;6291781;28;20039;-67
2022/10/23 03:52:34;;;;;;;121.38;39.28;;;;;;;;;;6291691;28;20044;-67
2022/10/23 03:55:34;;;;;;;128.85;40.28;;;;;;;;;;6293986;28;20093;-66
2022/10/23 03:58:35;;;;;;;124.13;39.40;;;;;;;;;;6290957;28;20746;-65
2022/10/23 04:01:35;;;;;;;115.05;36.78;;;;;;;;;;6284229;28;20051;-67
2022/10/23 04:04:36;;;;;;;121.82;39.78;;;;;;;;;;6289060;28;20044;-66
2022/10/23 04:07:37;;;;;;;123.82;38.20;;;;;;;;;;6289107;28;20139;-67
2022/10/23 04:10:37;;;;;;;113.18;36.33;;;;;;;;;;6290517;28;20136;-67
2022/10/23 04:13:38;;;;;;;125.13;35.63;;;;;;;;;;6292267;28;20181;-68
2022/10/23 04:16:39;;;;;;;117.13;36.35;;;;;;;;;;6284118;28;20043;-68
2022/10/23 04:19:39;;;;;;;116.57;36.58;;;;;;;;;;6288996;28;20040;-68
2022/10/23 04:22:40;;;;;;;123.30;38.70;;;;;;;;;;6288098;28;20086;-66
2022/10/23 04:25:40;;;;;;;117.30;38.03;;;;;;;;;;6289376;28;20041;-63
2022/10/23 04:28:41;;;;;;;115.93;38.28;;;;;;;;;;6293404;28;20098;-64
2022/10/23 04:31:41;;;;;;;120.40;39.88;;;;;;;;;;6288198;28;20036;-63
2022/10/23 04:34:42;;;;;;;134.65;44.92;;;;;;;;;;6288140;28;20120;-63
2022/10/23 04:37:42;;;;;;;128.70;42.35;;;;;;;;;;6288829;28;20048;-64
2022/10/23 04:40:43;;;;;;;137.10;43.15;;;;;;;;;;6286557;28;20526;-65
2022/10/23 04:43:44;;;;;;;145.73;46.67;;;;;;;;;;6289316;28;20052;-68
2022/10/23 04:46:44;;;;;;;145.75;47.60;;;;;;;;;;6287579;28;20507;-67
2022/10/23 04:49:45;;;;;;;142.48;48.88;;;;;;;;;;6287102;28;20051;-68
2022/10/23 04:52:45;;;;;;;131.20;43.47;;;;;;;;;;6286853;28;20167;-67
2022/10/23 04:55:54;;;;;;;136.40;46.65;;;;;;;;;;6288300;28;20472;-68
2022/10/23 04:58:54;;;;;;;135.73;47.67;;;;;;;;;;6286673;28;20135;-68
2022/10/23 05:01:55;;;;;;;154.80;52.33;;;;;;;;;;6285753;28;20045;-66
2022/10/23 05:04:55;;;;;;;160.95;52.53;;;;;;;;;;6286879;28;20055;-67
2022/10/23 05:07:56;;;;;;;146.27;49.08;;;;;;;;;;6287845;28;20055;-67
2022/10/23 05:10:56;;;;;;;131.50;45.17;;;;;;;;;;6287047;28;20068;-68
2022/10/23 05:13:57;;;;;;;135.05;41.75;;;;;;;;;;6287039;28;20807;-66
2022/10/23 05:17:34;;;;;;;134.25;42.08;;;;;;;;;;6287269;28;20053;-68
2022/10/23 05:20:35;;;;;;;125.40;40.83;;;;;;;;;;6282239;28;20048;-67
2022/10/23 05:23:37;;;;;;;124.47;39.83;;;;;;;;;;6285330;28;20059;-66
2022/10/23 05:26:37;;;;;;;130.20;44.30;;;;;;;;;;6293251;28;20087;-67
2022/10/23 05:29:38;;;;;;;134.65;42.20;;;;;;;;;;6290497;28;20079;-68
2022/10/23 05:32:39;;;;;;;152.13;46.45;;;;;;;;;;6287069;28;20043;-64
2022/10/23 05:35:41;;;;;;;129.25;42.03;;;;;;;;;;6286828;28;20040;-68
2022/10/23 05:38:42;;;;;;;135.73;43.10;;;;;;;;;;6286238;28;20040;-66
2022/10/23 05:41:43;;;;;;;137.07;42.78;;;;;;;;;;6286869;28;20056;-67
2022/10/23 05:44:43;;;;;;;133.77;41.85;;;;;;;;;;6287928;28;20045;-67
2022/10/23 05:47:45;;;;;;;119.15;38.00;;;;;;;;;;6291110;28;20171;-66
2022/10/23 05:50:45;;;;;;;123.57;36.97;;;;;;;;;;6292990;28;20098;-68
2022/10/23 05:53:49;;;;;;;113.57;35.97;;;;;;;;;;6290817;28;20048;-67
2022/10/23 05:56:50;;;;;;;112.30;35.42;;;;;;;;;;6292637;28;20412;-67
2022/10/23 05:59:51;;;;;;;110.93;34.30;;;;;;;;;;6293358;28;20079;-67
2022/10/23 06:02:51;;;;;;;103.60;32.22;;;;;;;;;;6291775;28;20044;-69
2022/10/23 06:05:52;;;;;;;110.00;33.15;;;;;;;;;;6288763;28;20546;-67
2022/10/23 06:08:53;;;;;;;102.15;30.85;;;;;;;;;;6289839;28;20048;-66
2022/10/23 06:11:54;;;;;;;101.07;32.85;;;;;;;;;;6292122;28;20606;-68
2022/10/23 06:14:54;;;;;;;104.65;31.17;;;;;;;;;;6291597;28;20040;-63
2022/10/23 06:17:59;;;;;;;101.35;32.50;;;;;;;;;;6292999;28;20040;-62
2022/10/23 06:21:01;;;;;;;103.13;31.60;;;;;;;;;;6292860;28;20052;-63
2022/10/23 06:24:01;;;;;;;101.53;31.83;;;;;;;;;;6288684;28;20080;-62
2022/10/23 06:27:02;;;;;;;101.78;31.65;;;;;;;;;;6293429;28;20058;-62
2022/10/23 06:30:03;;;;;;;110.32;30.88;;;;;;;;;;6292266;28;20487;-63
2022/10/23 06:33:03;;;;;;;100.60;30.10;;;;;;;;;;6291539;28;20052;-65
2022/10/23 06:36:07;;;;;;;98.72;30.00;;;;;;;;;;6292825;28;20064;-64
2022/10/23 06:39:08;;;;;;;104.35;31.25;;;;;;;;;;6291505;28;20057;-69
2022/10/23 06:42:09;;;;;;;97.10;30.50;;;;;;;;;;6283837;28;20045;-61
2022/10/23 06:45:10;;;;;;;93.13;28.80;;;;;;;;;;6291283;28;20491;-63
2022/10/23 06:48:10;;;;;;;93.95;28.33;;;;;;;;;;6289324;28;20044;-65
2022/10/23 06:51:13;;;;;;;91.00;28.95;;;;;;;;;;6292609;28;20090;-69
2022/10/23 06:54:14;;;;;;;96.72;31.23;;;;;;;;;;6289798;28;20537;-62
2022/10/23 06:57:14;;;;;;;102.22;35.50;;;;;;;;;;6292403;28;20153;-63
2022/10/23 07:00:15;;;;;;;113.10;41.53;;;;;;;;;;6291410;28;20080;-69
2022/10/23 07:03:15;;;;;;;91.72;30.50;;;;;;;;;;6291294;28;20057;-62
2022/10/23 07:06:16;;;;;;;99.53;29.88;;;;;;;;;;6291991;28;20088;-63
2022/10/23 07:09:17;;;;;;;97.15;33.03;;;;;;;;;;6291832;28;20049;-63
2022/10/23 07:12:17;;;;;;;85.78;27.00;;;;;;;;;;6291545;28;20470;-65
2022/10/23 07:15:18;;;;;;;83.60;27.52;;;;;;;;;;6290221;28;20055;-65
2022/10/23 07:18:18;;;;;;;76.05;26.42;;;;;;;;;;6292277;28;20124;-65
2022/10/23 07:21:19;;;;;;;83.18;26.02;;;;;;;;;;6292231;28;20052;-65
2022/10/23 07:24:19;;;;;;;82.70;25.08;;;;;;;;;;6290606;28;20134;-64
2022/10/23 07:27:20;;;;;;;84.68;24.77;;;;;;;;;;6292180;28;20129;-64
2022/10/23 07:30:21;;;;;;;76.85;26.05;;;;;;;;;;6291862;28;20561;-64
2022/10/23 07:33:21;;;;;;;77.18;25.48;;;;;;;;;;6290958;28;20419;-65
2022/10/23 07:36:22;;;;;;;102.50;36.63;;;;;;;;;;6296560;28;20044;-65
2022/10/23 07:39:22;;;;;;;214.55;72.75;;;;;;;;;;6282009;28;20080;-64
2022/10/23 07:42:23;;;;;;;117.60;44.97;;;;;;;;;;6296293;28;20048;-65
2022/10/23 07:45:23;;;;;;;79.70;28.45;;;;;;;;;;6295552;28;20497;-64
2022/10/23 07:48:26;;;;;;;76.80;25.95;;;;;;;;;;6296651;28;20075;-64
2022/10/23 07:51:26;;;;;;;87.22;32.33;;;;;;;;;;6296750;28;20403;-63
2022/10/23 07:54:27;;;;;;;71.93;25.88;;;;;;;;;;6294052;28;20040;-64
2022/10/23 07:57:27;;;;;;;80.00;26.00;;;;;;;;;;6296319;28;20049;-64
2022/10/23 08:00:28;;;;;;;75.28;26.50;;;;;;;;;;6295677;28;20052;-66
2022/10/23 08:03:31;;;;;;;81.05;27.55;;;;;;;;;;6295252;28;20040;-68
2022/10/23 08:06:34;;;;;;;74.47;27.35;;;;;;;;;;6295912;28;20499;-63
2022/10/23 08:09:36;;;;;;;78.75;29.20;;;;;;;;;;6296033;28;20040;-64
2022/10/23 08:12:37;;;;;;;77.63;26.75;;;;;;;;;;6295122;28;20071;-68
2022/10/23 08:15:38;;;;;;;85.75;27.73;;;;;;;;;;6294644;28;20053;-62
2022/10/23 08:18:41;;;;;;;73.13;27.58;;;;;;;;;;6295603;28;20072;-64
2022/10/23 08:21:42;;;;;;;67.55;22.35;;;;;;;;;;6296425;28;20055;-64
2022/10/23 08:24:42;;;;;;;75.00;25.02;;;;;;;;;;6293321;28;20552;-64
2022/10/23 08:27:43;;;;;;;85.50;28.45;;;;;;;;;;6295119;28;20048;-63
2022/10/23 08:30:43;;;;;;;78.60;24.67;;;;;;;;;;6295241;28;20076;-64
2022/10/23 08:33:44;;;;;;;69.22;25.25;;;;;;;;;;6294227;28;20047;-64
2022/10/23 08:36:45;;;;;;;75.47;26.03;;;;;;;;;;6295170;28;20486;-65
2022/10/23 08:39:46;;;;;;;70.47;23.67;;;;;;;;;;6294733;28;20097;-64
2022/10/23 08:43:04;;;;;;;76.32;27.08;;;;;;;;;;6294924;28;20048;-64
2022/10/23 08:46:11;;;;;;;66.88;23.25;;;;;;;;;;6292863;28;20072;-63
2022/10/23 08:49:40;;;;;;;76.00;24.83;;;;;;;;;;6295519;28;20133;-61
2022/10/23 08:52:49;;;;;;;65.68;21.67;;;;;;;;;;6294275;28;20450;-62
2022/10/23 08:56:03;;;;;;;72.88;26.27;;;;;;;;;;6294608;28;20509;-64
2022/10/23 08:59:10;;;;;;;79.90;32.30;;;;;;;;;;6291653;28;20494;-62
2022/10/23 09:02:24;;;;;;;96.70;32.67;;;;;;;;;;6293385;28;20079;-66
2022/10/23 09:05:49;;;;;;;95.43;35.30;;;;;;;;;;6293802;28;20441;-63
2022/10/23 09:09:14;;;;;;;63.03;23.40;;;;;;;;;;6292455;28;20052;-71
2022/10/23 09:12:19;;;;;;;70.15;24.13;;;;;;;;;;6291672;28;20127;-65
2022/10/23 09:15:46;;;;;;;62.72;23.70;;;;;;;;;;6292636;28;20085;-62
2022/10/23 09:18:50;;;;;;;72.57;24.55;;;;;;;;;;6293292;28;20127;-64
2022/10/23 09:21:51;;;;;;;66.45;24.88;;;;;;;;;;6291916;28;20269;-63
2022/10/23 09:24:51;;;;;;;69.35;24.77;;;;;;;;;;6289600;28;20485;-67
2022/10/23 09:27:55;;;;;;;76.57;26.27;;;;;;;;;;6292030;28;20055;-63
2022/10/23 09:31:10;;;;;;;74.28;26.35;;;;;;;;;;6291942;28;20051;-64
2022/10/23 09:34:18;;;;;;;77.85;27.80;;;;;;;;;;6288822;28;20050;-64
2022/10/23 09:37:27;;;;;;;86.72;30.20;;;;;;;;;;6290049;28;20175;-64
2022/10/23 09:40:32;;;;;;;87.60;29.45;;;;;;;;;;6290026;28;20737;-65
2022/10/23 09:43:33;;;;;;;89.30;32.65;;;;;;;;;;6290007;28;20079;-64
2022/10/23 09:46:43;;;;;;;86.43;30.70;;;;;;;;;;6287610;28;20056;-65
2022/10/23 09:49:52;;;;;;;79.57;28.63;;;;;;;;;;6280663;28;20064;-69
2022/10/23 09:52:54;;;;;;;77.30;28.88;;;;;;;;;;6273509;28;20059;-64
2022/10/23 09:55:58;;;;;;;85.03;30.63;;;;;;;;;;6267125;28;20128;-67
2022/10/23 09:59:11;;;;;;;93.20;32.17;;;;;;;;;;6273181;28;20048;-62
2022/10/23 10:02:25;;;;;;;89.72;34.92;;;;;;;;;;6268941;28;20040;-68
2022/10/23 10:05:28;;;;;;;91.18;33.83;;;;;;;;;;6272416;28;20530;-62
2022/10/23 10:08:33;;;;;;;90.53;32.53;;;;;;;;;;6268824;28;20139;-67
2022/10/23 10:11:36;;;;;;;81.60;30.42;;;;;;;;;;6270173;28;20583;-64
2022/10/23 10:14:42;;;;;;;78.97;30.88;;;;;;;;;;6276933;28;20388;-63
2022/10/23 10:17:51;;;;;;;82.22;30.17;;;;;;;;;;6269232;28;21246;-63
2022/10/23 10:21:20;;;;;;;80.95;29.65;;;;;;;;;;6269155;28;20045;-62
2022/10/23 10:24:37;;;;;;;69.00;26.33;;;;;;;;;;6274247;28;20056;-68
2022/10/23 10:27:49;;;;;;;58.20;22.15;;;;;;;;;;6270925;28;20048;-63
2022/10/23 10:31:28;;;;;;;67.32;26.25;;;;;;;;;;6273008;28;20863;-63
2022/10/23 10:35:14;;;;;;;56.90;23.35;;;;;;;;;;6270718;28;20041;-61
2022/10/23 10:38:32;;;;;;;55.88;24.67;;;;;;;;;;6176447;28;20173;-62
2022/10/23 10:41:43;;;;;;;48.03;20.55;;;;;;;;;;6184612;28;20058;-64
2022/10/23 10:45:16;;;;;;;46.83;19.42;;;;;;;;;;6272026;28;20052;-64
2022/10/23 10:48:40;;;;;;;49.83;22.15;;;;;;;;;;6270889;28;20060;-67
2022/10/23 10:51:53;;;;;;;38.25;15.77;;;;;;;;;;6269739;28;20081;-68
2022/10/23 10:55:12;;;;;;;33.80;16.33;;;;;;;;;;6273428;28;20446;-67
2022/10/23 10:58:22;;;;;;;34.03;14.45;;;;;;;;;;6272426;28;20060;-70
2022/10/23 11:01:29;;;;;;;30.50;14.02;;;;;;;;;;6270733;28;21032;-65
2022/10/23 11:04:39;;;;;;;35.63;14.68;;;;;;;;;;6269903;28;20131;-64
2022/10/23 11:07:51;;;;;;;27.90;12.77;;;;;;;;;;6271305;28;20470;-64
2022/10/23 11:11:02;;;;;;;30.27;13.57;;;;;;;;;;6277752;28;20077;-63
2022/10/23 11:14:03;;;;;;;28.48;12.90;;;;;;;;;;6272683;28;20426;-64
2022/10/23 11:17:15;;;;;;;27.35;12.57;;;;;;;;;;6272224;28;20048;-63
2022/10/23 11:20:53;;;;;;;30.95;12.68;;;;;;;;;;6275477;28;20151;-64
2022/10/23 11:24:00;;;;;;;30.08;12.07;;;;;;;;;;6272120;28;20084;-64
2022/10/23 11:27:35;;;;;;;27.23;11.88;;;;;;;;;;6274640;28;20048;-65
2022/10/23 11:30:57;;;;;;;26.30;12.02;;;;;;;;;;6268765;28;20076;-74
2022/10/23 11:34:05;;;;;;;;;;;;;;;;;;6275144;28;20084;-74
2022/10/23 11:37:07;;;;;;;26.77;11.73;;;;;;;;;;6273141;28;20039;-67
2022/10/23 11:40:08;;;;;;;25.02;13.50;;;;;;;;;;6274170;28;20056;-71
2022/10/23 11:43:08;;;;;;;27.67;14.13;;;;;;;;;;6274299;28;20127;-70
2022/10/23 11:46:29;;;;;;;29.10;14.02;;;;;;;;;;6275908;28;20071;-67
2022/10/23 11:49:30;;;;;;;25.05;12.20;;;;;;;;;;6275136;28;20063;-71
2022/10/23 11:52:32;;;;;;;27.25;11.63;;;;;;;;;;6271849;28;20076;-64
2022/10/23 11:55:32;;;;;;;32.67;11.98;;;;;;;;;;6266923;28;20044;-62
2022/10/23 11:58:48;;;;;;;25.20;12.15;;;;;;;;;;6272705;28;20106;-67
2022/10/23 12:01:50;;;;;;;27.38;11.63;;;;;;;;;;6268995;28;20055;-65
2022/10/23 12:04:53;;;;;;;25.30;11.38;;;;;;;;;;6266170;28;20048;-64
2022/10/23 12:07:55;;;;;;;23.90;10.65;;;;;;;;;;6273391;28;20056;-70
2022/10/23 12:10:56;;;;;;;24.25;12.20;;;;;;;;;;6272942;28;20171;-74
2022/10/23 12:13:56;;;;;;;24.05;11.07;;;;;;;;;;6269761;28;20104;-68
2022/10/23 12:16:57;;;;;;;25.42;12.65;;;;;;;;;;6269222;28;20053;-64
2022/10/23 12:20:07;;;;;;;21.92;10.68;;;;;;;;;;6271015;28;20191;-67
2022/10/23 12:23:45;;;;;;;23.40;10.85;;;;;;;;;;6272887;28;20191;-63
2022/10/23 12:27:13;;;;;;;29.08;12.55;;;;;;;;;;6269992;28;20071;-64
2022/10/23 12:30:23;;;;;;;23.83;11.35;;;;;;;;;;6269660;28;20049;-67
2022/10/23 12:34:25;;;;;;;26.85;12.40;;;;;;;;;;6271796;28;20171;-63
2022/10/23 12:37:55;;;;;;;23.63;11.63;;;;;;;;;;6207555;28;20050;-63
2022/10/23 12:41:15;;;;;;;23.17;11.10;;;;;;;;;;6215059;28;20601;-63
2022/10/23 12:44:16;;;;;;;24.65;11.45;;;;;;;;;;6276624;28;20522;-63
2022/10/23 12:47:17;;;;;;;23.05;10.93;;;;;;;;;;6274574;28;20049;-63
2022/10/23 12:50:30;;;;;;;24.02;11.32;;;;;;;;;;6275553;28;20089;-63
2022/10/23 12:53:30;;;;;;;20.77;10.68;;;;;;;;;;6276648;28;20499;-62
2022/10/23 12:56:35;;;;;;;26.13;12.88;;;;;;;;;;6268344;28;20091;-61
2022/10/23 12:59:37;;;;;;;22.38;10.85;;;;;;;;;;6272237;28;20048;-61
2022/10/23 13:02:38;;;;;;;;;;;;;;;;;;6268780;28;20056;-62
2022/10/23 13:05:38;;;;;;;27.85;11.63;;;;;;;;;;6272654;28;19973;-71
2022/10/23 13:08:43;;;;;;;23.67;11.60;;;;;;;;;;6273638;28;20052;-65
2022/10/23 13:11:43;;;;;;;24.55;11.43;;;;;;;;;;6270309;28;20502;-63
2022/10/23 13:15:16;;;;;;;21.80;11.00;;;;;;;;;;6268339;28;20057;-62
2022/10/23 13:18:17;;;;;;;24.88;11.45;;;;;;;;;;6256240;28;20059;-63
2022/10/23 13:21:23;;;;;;;23.05;10.98;;;;;;;;;;6269401;28;20419;-62
2022/10/23 13:24:26;;;;;;;26.23;10.73;;;;;;;;;;6269632;28;20052;-64
2022/10/23 13:27:29;;;;;;;21.73;9.50;;;;;;;;;;6266682;28;20056;-71
2022/10/23 13:30:39;;;;;;;18.15;9.00;;;;;;;;;;6269051;28;20048;-72
2022/10/23 13:33:41;;;;;;;20.38;9.48;;;;;;;;;;6265077;28;20049;-62
2022/10/23 13:36:55;;;;;;;20.52;9.45;;;;;;;;;;6270852;28;20492;-65
2022/10/23 13:40:22;;;;;;;19.55;8.95;;;;;;;;;;6266672;28;20602;-67
2022/10/23 13:43:25;;;;;;;19.10;8.60;;;;;;;;;;6257843;28;20644;-65
2022/10/23 13:46:25;;;;;;;20.65;9.00;;;;;;;;;;6266524;28;20082;-66
2022/10/23 13:49:26;;;;;;;18.73;8.38;;;;;;;;;;6264495;28;20484;-68
2022/10/23 13:52:26;;;;;;;17.92;8.70;;;;;;;;;;6261632;28;20052;-65
2022/10/23 13:55:28;;;;;;;17.38;8.20;;;;;;;;;;6267358;28;20060;-70
2022/10/23 13:58:28;;;;;;;15.07;7.80;;;;;;;;;;6264669;28;20399;-65
2022/10/23 14:01:32;;;;;;;18.80;8.68;;;;;;;;;;6262612;28;20037;-69
2022/10/23 14:04:33;;;;;;;21.42;8.68;;;;;;;;;;6264715;28;20080;-65
2022/10/23 14:07:34;;;;;;;16.50;7.93;;;;;;;;;;6267393;28;20079;-69
2022/10/23 14:10:34;;;;;;;17.73;8.68;;;;;;;;;;6266145;28;20040;-69
2022/10/23 14:13:35;;;;;;;20.10;9.60;;;;;;;;;;6263476;28;20806;-63
2022/10/23 14:16:36;;;;;;;18.73;9.05;;;;;;;;;;6269530;28;20451;-65
2022/10/23 14:19:37;;;;;;;38.47;10.77;;;;;;;;;;6266008;28;20491;-69
2022/10/23 14:22:37;;;;;;;18.35;8.80;;;;;;;;;;6262537;28;20298;-70
2022/10/23 14:25:38;;;;;;;19.65;8.50;;;;;;;;;;6269667;28;20055;-67
2022/10/23 14:28:38;;;;;;;15.57;8.07;;;;;;;;;;6267032;28;20381;-71
2022/10/23 14:31:39;;;;;;;20.13;8.63;;;;;;;;;;6264104;28;20044;-67
2022/10/23 14:34:42;;;;;;;22.40;9.77;;;;;;;;;;6266469;28;20048;-71
2022/10/23 14:37:43;;;;;;;18.20;8.55;;;;;;;;;;6267882;28;20634;-69
2022/10/23 14:40:43;;;;;;;18.52;8.20;;;;;;;;;;6262989;28;20055;-70
2022/10/23 14:43:44;;;;;;;15.48;8.75;;;;;;;;;;6261082;28;20048;-68
2022/10/23 14:46:44;;;;;;;40.08;22.45;;;;;;;;;;6267071;28;20627;-66
2022/10/23 14:49:50;;;;;;;24.48;14.18;;;;;;;;;;6266131;28;20161;-70
2022/10/23 14:52:51;;;;;;;19.27;10.52;;;;;;;;;;6264450;28;20131;-66
2022/10/23 14:55:51;;;;;;;18.17;8.25;;;;;;;;;;6267110;28;20063;-65
2022/10/23 14:58:52;;;;;;;19.05;8.57;;;;;;;;;;6268526;28;20060;-65
2022/10/23 15:01:52;;;;;;;15.77;7.78;;;;;;;;;;6267906;28;20079;-69
2022/10/23 15:04:53;;;;;;;18.50;8.02;;;;;;;;;;6266718;28;20045;-70
2022/10/23 15:07:54;;;;;;;18.77;9.45;;;;;;;;;;6267936;28;20091;-69
2022/10/23 15:11:00;;;;;;;19.17;9.43;;;;;;;;;;6264888;28;20056;-65
2022/10/23 15:14:00;;;;;;;20.35;9.48;;;;;;;;;;6260563;28;20049;-70
2022/10/23 15:17:01;;;;;;;18.60;8.68;;;;;;;;;;6261839;28;20048;-69
2022/10/23 15:20:02;;;;;;;20.80;9.20;;;;;;;;;;6263925;28;20048;-66
2022/10/23 15:23:03;;;;;;;17.20;8.87;;;;;;;;;;6260772;28;20453;-68
2022/10/23 15:26:08;;;;;;;22.23;9.48;;;;;;;;;;6265883;28;20045;-69
2022/10/23 15:29:10;;;;;;;19.13;10.40;;;;;;;;;;6264099;28;20978;-67
2022/10/23 15:32:11;;;;;;;27.70;11.40;;;;;;;;;;6259691;28;20068;-69
2022/10/23 15:35:11;;;;;;;23.40;11.63;;;;;;;;;;6266443;28;20703;-67
2022/10/23 15:38:12;;;;;;;22.00;10.98;;;;;;;;;;6266925;28;20426;-67
2022/10/23 15:41:15;;;;;;;23.08;10.55;;;;;;;;;;6263329;28;20060;-66
2022/10/23 15:44:18;;;;;;;23.90;10.07;;;;;;;;;;6259267;28;20832;-66
2022/10/23 15:47:19;;;;;;;24.48;11.05;;;;;;;;;;6265780;28;20397;-64
2022/10/23 15:50:19;;;;;;;30.05;15.65;;;;;;;;;;6263719;28;20045;-67
2022/10/23 15:53:20;;;;;;;29.20;15.00;;;;;;;;;;6260070;28;20048;-63
2022/10/23 15:56:20;;;;;;;42.53;16.10;;;;;;;;;;6266869;28;20171;-64
2022/10/23 15:59:23;;;;;;;33.00;15.63;;;;;;;;;;6269365;28;20062;-67
2022/10/23 16:02:24;;;;;;;34.88;17.70;;;;;;;;;;6265767;28;20102;-65
2022/10/23 16:05:24;;;;;;;50.88;21.15;;;;;;;;;;6273093;28;20041;-64
2022/10/23 16:08:25;;;;;;;44.42;19.90;;;;;;;;;;6268732;28;20106;-66
2022/10/23 16:11:28;;;;;;;44.13;20.33;;;;;;;;;;6264990;28;20052;-70
2022/10/23 16:14:28;;;;;;;45.55;19.27;;;;;;;;;;6263779;28;20048;-68
2022/10/23 16:17:29;;;;;;;59.28;24.05;;;;;;;;;;6270112;28;20103;-67
2022/10/23 16:20:29;;;;;;;55.65;22.35;;;;;;;;;;6269021;28;20075;-65
2022/10/23 16:23:32;;;;;;;74.85;26.83;;;;;;;;;;6264374;28;20127;-64
2022/10/23 16:26:33;;;;;;;;;;;;;;;;;;6269530;28;20079;-65
2022/10/23 16:29:34;;;;;;;95.20;36.15;;;;;;;;;;6268181;28;19986;-63
2022/10/23 16:32:35;;;;;;;125.75;43.78;;;;;;;;;;6263963;28;20076;-65
2022/10/23 16:35:36;;;;;;;84.10;34.13;;;;;;;;;;6276376;28;20051;-65
2022/10/23 16:38:37;;;;;;;90.03;35.63;;;;;;;;;;6275350;28;20051;-63
2022/10/23 16:41:37;;;;;;;90.10;34.13;;;;;;;;;;6267627;28;20059;-67
2022/10/23 16:44:38;;;;;;;84.82;32.90;;;;;;;;;;6269452;28;20044;-65
2022/10/23 16:47:39;;;;;;;110.90;68.22;;;;;;;;;;6276316;28;20454;-67
2022/10/23 16:50:40;;;;;;;92.97;39.15;;;;;;;;;;6275683;28;20052;-67
2022/10/23 16:53:42;;;;;;;88.35;38.53;;;;;;;;;;6268302;28;20139;-71
2022/10/23 16:56:43;;;;;;;86.93;36.97;;;;;;;;;;6272619;28;20139;-70
2022/10/23 16:59:44;;;;;;;107.60;40.85;;;;;;;;;;6268166;28;20092;-69
2022/10/23 17:02:44;;;;;;;88.53;36.20;;;;;;;;;;6267392;28;20056;-67
2022/10/23 17:05:45;;;;;;;86.97;35.65;;;;;;;;;;6272046;28;20048;-67
2022/10/23 17:08:46;;;;;;;82.57;34.38;;;;;;;;;;6268566;28;20396;-67
2022/10/23 17:11:46;;;;;;;84.22;34.30;;;;;;;;;;6266939;28;20057;-68
2022/10/23 17:14:47;;;;;;;78.47;33.78;;;;;;;;;;6270819;28;20143;-68
2022/10/23 17:17:48;;;;;;;79.55;32.08;;;;;;;;;;6273211;28;20122;-71
2022/10/23 17:20:55;;;;;;;75.35;31.85;;;;;;;;;;6275414;28;20139;-68
2022/10/23 17:23:56;;;;;;;91.05;34.72;;;;;;;;;;6271641;28;20078;-62
2022/10/23 17:26:57;;;;;;;96.03;36.95;;;;;;;;;;6276000;28;20565;-67
2022/10/23 17:29:57;;;;;;;96.28;36.85;;;;;;;;;;6268157;28;20076;-63
2022/10/23 17:32:58;;;;;;;99.55;38.38;;;;;;;;;;6264824;28;20500;-65
2022/10/23 17:36:01;;;;;;;97.25;36.38;;;;;;;;;;6271949;28;20049;-65
2022/10/23 17:39:05;;;;;;;107.65;38.92;;;;;;;;;;6269632;28;20048;-67
2022/10/23 17:42:06;;;;;;;98.38;37.67;;;;;;;;;;6271125;28;20217;-61
2022/10/23 17:45:07;;;;;;;126.63;54.13;;;;;;;;;;6269952;28;20072;-64
2022/10/23 17:48:07;;;;;;;98.53;41.80;;;;;;;;;;6272353;28;20056;-63
2022/10/23 17:51:11;;;;;;;107.32;37.85;;;;;;;;;;6273178;28;20143;-66